Time;durP1;ratioP1;P1;durP2;ratioP2;P2;SDS_P1;SDS_P2;PMS_P1;PMS_P2;Temp;Humidity;BMP_temperature;BMP_pressure;BME280_temperature;BME280_humidity;BME280_pressure;Samples;Min_cycle;Max_cycle;Signal;HPM_P1;HPM_P2
2021/11/27 00:00:56;;;;;;;4.37;3.00;;;3.30;99.90;;;;;;4955402;28;20431;-72
2021/11/27 00:03:23;;;;;;;3.47;3.00;;;3.30;99.90;;;;;;4954956;28;20897;-72
2021/11/27 00:05:50;;;;;;;3.70;3.40;;;3.30;99.90;;;;;;4943709;28;20456;-73
2021/11/27 00:08:17;;;;;;;5.43;3.47;;;3.30;99.90;;;;;;4955141;28;20456;-73
2021/11/27 00:10:45;;;;;;;2.63;2.43;;;3.30;99.90;;;;;;4955497;28;20446;-72
2021/11/27 00:13:11;;;;;;;2.40;2.20;;;3.40;99.90;;;;;;4954853;28;20446;-72
2021/11/27 00:15:38;;;;;;;3.93;3.00;;;3.40;99.90;;;;;;4944312;28;20436;-72
2021/11/27 00:18:05;;;;;;;4.80;2.50;;;3.40;99.90;;;;;;4953862;28;20286;-72
2021/11/27 00:20:35;;;;;;;2.93;2.47;;;3.40;99.90;;;;;;4955080;28;20464;-73
2021/11/27 00:23:01;;;;;;;2.40;2.30;;;3.40;99.90;;;;;;4954803;28;20892;-73
2021/11/27 00:25:26;;;;;;;6.10;3.33;;;3.30;99.90;;;;;;4952420;28;20445;-72
2021/11/27 00:27:52;;;;;;;5.10;2.63;;;3.30;99.90;;;;;;4945991;28;20717;-73
2021/11/27 00:30:22;;;;;;;3.10;2.80;;;3.30;99.90;;;;;;4954924;28;20209;-73
2021/11/27 00:32:48;;;;;;;2.90;2.70;;;3.40;99.90;;;;;;4954405;28;20240;-72
2021/11/27 00:35:14;;;;;;;3.23;2.30;;;3.30;99.90;;;;;;4954975;28;20443;-72
2021/11/27 00:37:40;;;;;;;3.60;2.17;;;3.30;99.90;;;;;;4942847;28;20499;-74
2021/11/27 00:40:08;;;;;;;2.57;1.97;;;3.30;99.90;;;;;;4945821;28;20276;-73
2021/11/27 00:42:34;;;;;;;4.93;3.10;;;3.30;99.90;;;;;;4947297;28;20476;-72
2021/11/27 00:45:00;;;;;;;3.23;2.40;;;3.30;99.90;;;;;;4954503;28;20427;-72
2021/11/27 00:47:25;;;;;;;4.07;3.70;;;3.30;99.90;;;;;;4954744;28;20887;-71
2021/11/27 00:49:53;;;;;;;3.43;2.80;;;3.30;99.90;;;;;;4954311;28;20472;-72
2021/11/27 00:52:20;;;;;;;3.33;2.33;;;3.30;99.90;;;;;;4954289;28;20333;-72
2021/11/27 00:54:46;;;;;;;3.80;3.00;;;3.30;99.90;;;;;;4954733;28;20931;-72
2021/11/27 00:57:11;;;;;;;6.63;2.87;;;3.30;99.90;;;;;;4955019;28;20433;-72
2021/11/27 00:59:37;;;;;;;3.07;2.30;;;3.30;99.90;;;;;;4953604;28;20189;-72
2021/11/27 05:31:21;;;;;;;1.00;1.00;;;3.40;99.90;;;;;;5696869;23;20820;-81
2021/11/27 05:33:58;;;;;;;2.13;1.23;;;3.50;99.90;;;;;;4938559;29;20392;-80
2021/11/27 05:36:27;;;;;;;2.30;0.90;;;3.50;99.90;;;;;;4939430;29;20422;-80
2021/11/27 05:38:53;;;;;;;0.93;0.90;;;3.50;99.90;;;;;;4940571;29;20464;-80
2021/11/27 05:41:18;;;;;;;1.80;1.13;;;3.50;99.90;;;;;;4940174;29;20517;-80
2021/11/27 05:43:44;;;;;;;1.03;0.80;;;3.50;99.90;;;;;;4939747;29;20480;-80
2021/11/27 05:46:10;;;;;;;0.93;0.80;;;3.50;99.90;;;;;;4939323;29;20188;-80
2021/11/27 05:48:36;;;;;;;1.57;0.87;;;3.50;99.90;;;;;;4939881;29;20209;-80
2021/11/27 05:51:03;;;;;;;1.00;0.93;;;3.50;99.90;;;;;;4939286;29;20944;-80
2021/11/27 05:53:29;;;;;;;0.70;0.70;;;3.50;99.90;;;;;;4939205;29;20857;-80
2021/11/27 05:55:54;;;;;;;0.73;0.63;;;3.50;99.90;;;;;;4939166;29;20496;-80
2021/11/27 05:58:21;;;;;;;0.80;0.73;;;3.50;99.90;;;;;;4938971;29;20507;-80
2021/11/27 06:00:47;;;;;;;1.53;0.93;;;3.50;99.90;;;;;;4939141;29;20235;-82
2021/11/27 06:03:13;;;;;;;0.90;0.83;;;3.50;99.90;;;;;;4940211;29;20460;-82
2021/11/27 06:05:39;;;;;;;0.97;0.97;;;3.50;99.90;;;;;;4940146;29;20931;-82
2021/11/27 06:08:05;;;;;;;0.70;0.70;;;3.60;99.90;;;;;;4939609;29;20445;-82
2021/11/27 06:10:31;;;;;;;0.87;0.60;;;3.60;99.90;;;;;;4939211;29;20225;-82
2021/11/27 06:12:57;;;;;;;0.60;0.60;;;3.60;99.90;;;;;;4939070;29;20789;-82
2021/11/27 06:15:24;;;;;;;1.50;0.80;;;3.60;99.90;;;;;;4938861;29;20392;-82
2021/11/27 06:17:50;;;;;;;2.00;0.60;;;3.60;99.90;;;;;;4938984;29;20602;-82
2021/11/27 06:20:15;;;;;;;0.60;0.60;;;3.60;99.90;;;;;;4939238;29;20387;-82
2021/11/27 06:22:41;;;;;;;2.20;0.70;;;3.60;99.90;;;;;;4939230;29;20450;-82
2021/11/27 06:25:07;;;;;;;0.60;0.60;;;3.60;99.90;;;;;;4939238;29;20180;-82
2021/11/27 06:27:33;;;;;;;1.33;0.73;;;3.60;99.90;;;;;;4937999;29;20193;-81
2021/11/27 06:29:59;;;;;;;1.07;0.60;;;3.60;99.90;;;;;;4938971;29;20433;-81
2021/11/27 06:32:25;;;;;;;1.73;0.67;;;3.60;99.90;;;;;;4940087;29;20222;-81
2021/11/27 06:34:52;;;;;;;0.60;0.60;;;3.60;99.90;;;;;;4940039;29;20181;-81
2021/11/27 06:37:21;;;;;;;2.63;0.70;;;3.60;99.90;;;;;;4937986;29;20534;-81
2021/11/27 06:39:49;;;;;;;0.57;0.53;;;3.60;99.90;;;;;;4939116;29;20759;-82
2021/11/27 06:42:16;;;;;;;0.70;0.60;;;3.60;99.90;;;;;;4940207;29;20566;-81
2021/11/27 06:44:49;;;;;;;1.33;0.90;;;3.60;99.90;;;;;;4939117;29;20388;-81
2021/11/27 06:47:19;;;;;;;0.77;0.77;;;3.60;99.90;;;;;;4939814;29;20405;-82
2021/11/27 06:49:46;;;;;;;0.60;0.60;;;3.60;99.90;;;;;;4939624;29;20822;-82
2021/11/27 06:52:13;;;;;;;1.50;0.60;;;3.60;99.90;;;;;;4938168;29;20416;-84
2021/11/27 06:54:39;;;;;;;2.20;0.70;;;3.60;99.90;;;;;;4937117;29;20958;-84
2021/11/27 06:57:05;;;;;;;2.10;1.00;;;3.60;99.90;;;;;;4936798;29;20453;-84
2021/11/27 06:59:31;;;;;;;0.83;0.73;;;3.60;99.90;;;;;;4936614;29;20450;-84
2021/11/27 07:01:56;;;;;;;2.13;0.93;;;3.60;99.90;;;;;;4935282;29;20410;-85
2021/11/27 07:04:22;;;;;;;1.20;1.00;;;3.70;99.90;;;;;;4934590;29;20413;-84
2021/11/27 07:06:48;;;;;;;0.87;0.80;;;3.70;99.90;;;;;;4935243;29;20179;-85
2021/11/27 07:09:14;;;;;;;1.27;0.83;;;3.70;99.90;;;;;;4935115;29;20269;-84
2021/11/27 07:11:41;;;;;;;0.70;0.70;;;3.70;99.90;;;;;;4935126;29;20498;-84
2021/11/27 07:14:06;;;;;;;1.53;1.10;;;3.70;99.90;;;;;;4935107;29;20793;-84
2021/11/27 07:16:32;;;;;;;0.80;0.77;;;3.70;99.90;;;;;;4935385;29;20417;-84
2021/11/27 07:18:58;;;;;;;1.20;1.10;;;3.70;99.90;;;;;;4935976;29;20172;-84
2021/11/27 07:21:23;;;;;;;1.77;1.23;;;3.70;99.90;;;;;;4935064;29;20287;-84
2021/11/27 07:23:49;;;;;;;0.60;0.60;;;3.70;99.90;;;;;;4935217;29;20187;-84
2021/11/27 07:26:15;;;;;;;0.73;0.73;;;3.70;99.90;;;;;;4936848;29;20174;-84
2021/11/27 07:28:41;;;;;;;0.70;0.70;;;3.70;99.90;;;;;;4939414;29;20424;-84
2021/11/27 07:31:07;;;;;;;1.20;0.80;;;3.70;99.90;;;;;;4938783;29;20246;-84
2021/11/27 07:33:33;;;;;;;1.27;0.77;;;3.80;99.90;;;;;;4939120;29;20413;-85
2021/11/27 07:35:58;;;;;;;0.70;0.70;;;3.80;99.90;;;;;;4939108;29;20952;-84
2021/11/27 07:38:24;;;;;;;1.00;1.00;;;3.90;99.90;;;;;;4938852;29;20271;-84
2021/11/27 07:40:50;;;;;;;0.93;0.93;;;3.90;99.90;;;;;;4939290;29;20286;-84
2021/11/27 07:43:16;;;;;;;1.03;0.83;;;3.90;99.90;;;;;;4941302;29;20186;-82
2021/11/27 07:45:41;;;;;;;1.43;0.80;;;4.00;99.90;;;;;;4941226;29;20418;-83
2021/11/27 07:48:08;;;;;;;0.90;0.70;;;4.00;99.90;;;;;;4941333;29;20603;-82
2021/11/27 07:50:34;;;;;;;0.80;0.70;;;4.10;99.90;;;;;;4941953;29;20229;-82
2021/11/27 07:52:59;;;;;;;1.57;1.10;;;4.20;99.90;;;;;;4939157;29;20431;-83
2021/11/27 07:55:26;;;;;;;0.77;0.77;;;4.20;99.90;;;;;;4938041;29;20451;-83
2021/11/27 07:57:52;;;;;;;1.30;1.20;;;4.30;99.90;;;;;;4939923;29;20220;-83
2021/11/27 08:00:18;;;;;;;1.27;0.80;;;4.40;99.90;;;;;;4939834;29;20515;-83
2021/11/27 08:02:44;;;;;;;1.43;1.03;;;4.30;99.90;;;;;;4941600;29;20188;-82
2021/11/27 08:05:09;;;;;;;1.13;1.03;;;4.30;99.90;;;;;;4940614;29;20429;-83
2021/11/27 08:07:36;;;;;;;2.20;1.00;;;4.20;99.90;;;;;;4940168;29;20190;-83
2021/11/27 08:10:07;;;;;;;0.97;0.93;;;4.30;99.90;;;;;;4938936;29;20420;-83
2021/11/27 08:12:33;;;;;;;1.33;1.10;;;4.30;99.90;;;;;;4938140;29;20450;-83
2021/11/27 08:14:59;;;;;;;1.10;1.00;;;4.40;99.90;;;;;;4938377;29;20468;-83
2021/11/27 08:17:25;;;;;;;1.30;1.20;;;4.40;99.90;;;;;;4938599;29;20214;-83
2021/11/27 08:19:50;;;;;;;1.47;1.30;;;4.50;99.90;;;;;;4938377;29;20424;-83
2021/11/27 08:22:16;;;;;;;1.03;1.00;;;4.70;99.90;;;;;;4939013;29;20205;-84
2021/11/27 08:24:42;;;;;;;2.40;1.30;;;4.70;99.90;;;;;;4938537;29;20189;-83
2021/11/27 08:27:07;;;;;;;2.03;1.40;;;4.80;99.90;;;;;;4938875;29;20646;-83
2021/11/27 08:29:33;;;;;;;2.40;1.20;;;5.00;99.90;;;;;;4938507;29;20273;-84
2021/11/27 08:31:59;;;;;;;1.10;1.00;;;5.10;99.90;;;;;;4938378;29;20223;-83
2021/11/27 08:34:24;;;;;;;2.63;2.43;;;5.20;99.90;;;;;;4938891;29;20187;-83
2021/11/27 08:36:50;;;;;;;2.10;2.00;;;5.30;99.90;;;;;;4938757;29;20465;-83
2021/11/27 08:39:16;;;;;;;3.30;1.30;;;5.40;99.90;;;;;;4938763;29;20547;-83
2021/11/27 08:41:43;;;;;;;1.00;0.90;;;5.50;99.90;;;;;;4938490;29;20610;-83
2021/11/27 08:44:08;;;;;;;1.70;1.60;;;5.50;99.90;;;;;;4937701;29;20326;-83
2021/11/27 08:46:34;;;;;;;1.07;0.97;;;5.60;99.90;;;;;;4937655;29;20493;-85
2021/11/27 08:49:00;;;;;;;1.17;0.80;;;5.80;99.90;;;;;;4938272;29;20681;-83
2021/11/27 08:51:26;;;;;;;0.80;0.80;;;5.80;99.90;;;;;;4937873;29;20201;-81
2021/11/27 08:53:51;;;;;;;0.60;0.60;;;5.80;99.90;;;;;;4937971;29;20608;-83
2021/11/27 08:56:17;;;;;;;1.10;0.73;;;5.80;99.90;;;;;;4940354;29;20431;-83
2021/11/27 08:58:42;;;;;;;1.73;1.63;;;5.70;99.90;;;;;;4937648;29;20220;-84
2021/11/27 09:01:10;;;;;;;2.33;0.70;;;5.70;99.90;;;;;;4937975;29;20212;-83
2021/11/27 09:03:36;;;;;;;0.90;0.60;;;5.70;99.90;;;;;;4937715;29;20181;-83
2021/11/27 09:06:03;;;;;;;0.60;0.60;;;5.70;99.90;;;;;;4937920;29;20519;-83
2021/11/27 09:08:29;;;;;;;3.43;0.90;;;5.70;99.90;;;;;;4937765;29;20844;-83
2021/11/27 09:10:56;;;;;;;0.60;0.50;;;5.70;99.90;;;;;;4938056;29;20448;-82
2021/11/27 09:13:21;;;;;;;2.50;0.70;;;5.70;99.90;;;;;;4937489;29;20433;-83
2021/11/27 09:15:47;;;;;;;0.70;0.70;;;5.60;99.90;;;;;;4938098;29;20559;-80
2021/11/27 09:18:13;;;;;;;1.07;0.90;;;5.60;99.90;;;;;;4936328;29;20315;-80
2021/11/27 09:20:39;;;;;;;2.10;0.77;;;5.60;99.90;;;;;;4936306;29;20191;-80
2021/11/27 09:23:05;;;;;;;0.87;0.67;;;5.70;99.90;;;;;;4937190;29;20643;-83
2021/11/27 09:25:31;;;;;;;1.00;0.90;;;5.80;99.90;;;;;;4937327;29;20213;-83
2021/11/27 09:27:58;;;;;;;0.87;0.77;;;6.00;99.90;;;;;;4937249;29;20888;-82
2021/11/27 09:30:28;;;;;;;0.70;0.60;;;6.30;99.90;;;;;;4936955;29;20484;-83
2021/11/27 09:32:55;;;;;;;1.03;0.90;;;6.50;99.90;;;;;;4937408;29;20444;-83
2021/11/27 09:35:21;;;;;;;0.90;0.90;;;6.70;99.90;;;;;;4937285;29;20473;-83
2021/11/27 09:37:46;;;;;;;1.13;0.80;;;6.80;99.90;;;;;;4937567;29;20469;-83
2021/11/27 09:40:13;;;;;;;1.10;0.93;;;6.80;99.90;;;;;;4936692;29;20428;-83
2021/11/27 09:42:39;;;;;;;1.90;1.20;;;6.70;99.90;;;;;;4935544;29;20240;-83
2021/11/27 09:45:07;;;;;;;0.77;0.70;;;6.50;99.90;;;;;;4936372;29;20424;-83
2021/11/27 09:47:34;;;;;;;1.33;0.80;;;6.40;99.90;;;;;;4936781;29;20428;-83
2021/11/27 09:50:05;;;;;;;0.70;0.70;;;6.20;99.90;;;;;;4935595;29;20431;-83
2021/11/27 09:52:31;;;;;;;1.63;0.70;;;6.20;99.90;;;;;;4936575;29;20972;-83
2021/11/27 09:54:57;;;;;;;0.60;0.60;;;6.20;99.90;;;;;;4936521;29;20449;-83
2021/11/27 09:57:24;;;;;;;1.50;0.80;;;6.30;99.90;;;;;;4937203;29;20969;-83
2021/11/27 09:59:50;;;;;;;0.70;0.70;;;6.30;99.90;;;;;;4936426;29;20422;-83
2021/11/27 10:02:17;;;;;;;1.23;0.60;;;6.40;99.90;;;;;;4936372;29;20551;-83
2021/11/27 10:04:50;;;;;;;1.17;0.90;;;6.40;99.90;;;;;;4934962;29;20183;-83
2021/11/27 10:07:18;;;;;;;2.10;0.60;;;6.50;99.90;;;;;;4936529;29;20790;-83
2021/11/27 10:09:49;;;;;;;1.17;0.60;;;6.90;99.90;;;;;;4936527;29;20799;-83
2021/11/27 10:12:15;;;;;;;2.00;0.70;;;7.10;99.90;;;;;;4936403;29;20531;-83
2021/11/27 10:14:41;;;;;;;0.67;0.67;;;7.70;99.90;;;;;;4936429;29;21018;-82
2021/11/27 10:17:13;;;;;;;1.07;0.80;;;8.40;99.90;;;;;;4935888;29;20684;-83
2021/11/27 10:19:42;;;;;;;2.90;1.10;;;9.00;99.90;;;;;;4936657;29;20464;-83
2021/11/27 10:22:09;;;;;;;3.60;0.80;;;9.40;99.90;;;;;;4936131;29;20415;-83
2021/11/27 10:24:36;;;;;;;1.40;1.00;;;9.30;99.90;;;;;;4935870;29;20868;-83
2021/11/27 10:27:05;;;;;;;1.73;1.10;;;9.80;99.90;;;;;;4935771;29;20573;-83
2021/11/27 10:29:34;;;;;;;0.80;0.70;;;9.90;99.90;;;;;;4934464;29;20424;-84
2021/11/27 10:32:08;;;;;;;1.37;0.70;;;9.90;99.90;;;;;;4934936;29;20805;-83
2021/11/27 10:34:35;;;;;;;1.60;0.93;;;9.10;99.90;;;;;;4936429;29;20817;-83
2021/11/27 10:37:01;;;;;;;1.10;0.70;;;9.00;99.90;;;;;;4936541;29;20463;-82
2021/11/27 10:39:27;;;;;;;0.93;0.70;;;8.80;99.90;;;;;;4936599;29;20423;-83
2021/11/27 10:42:01;;;;;;;0.90;0.70;;;8.70;99.90;;;;;;4936168;29;21008;-83
2021/11/27 10:44:30;;;;;;;2.40;0.87;;;8.50;99.90;;;;;;4939477;29;20186;-83
2021/11/27 10:47:16;;;;;;;1.30;0.80;;;8.30;99.90;;;;;;4937063;29;20502;-82
2021/11/27 10:49:44;;;;;;;4.10;0.93;;;8.10;99.90;;;;;;4936067;29;20436;-83
2021/11/27 10:52:19;;;;;;;1.03;0.70;;;7.90;99.90;;;;;;4936062;29;20512;-84
2021/11/27 10:54:47;;;;;;;3.77;0.80;;;7.90;99.90;;;;;;4936120;29;20731;-83
2021/11/27 10:57:30;;;;;;;1.57;0.87;;;7.80;99.90;;;;;;4936179;29;20962;-81
2021/11/27 10:59:57;;;;;;;1.30;1.20;;;7.70;99.90;;;;;;4937307;29;20924;-81
2021/11/27 11:02:28;;;;;;;4.20;1.03;;;7.60;99.90;;;;;;4940578;29;20519;-81
2021/11/27 11:05:00;;;;;;;2.60;1.10;;;7.40;99.90;;;;;;4939821;29;20464;-83
2021/11/27 11:07:28;;;;;;;0.90;0.90;;;7.30;99.90;;;;;;4939772;29;20422;-83
2021/11/27 11:10:12;;;;;;;1.20;1.10;;;7.10;99.90;;;;;;4939430;29;20433;-82
2021/11/27 11:12:55;;;;;;;5.00;1.10;;;6.90;99.90;;;;;;4940116;29;20425;-83
2021/11/27 11:15:32;;;;;;;4.00;1.30;;;6.90;99.90;;;;;;4940185;29;21023;-83
2021/11/27 11:18:04;;;;;;;3.13;1.20;;;6.90;99.90;;;;;;4939844;29;20438;-83
2021/11/27 11:20:29;;;;;;;1.17;0.83;;;6.90;99.90;;;;;;4939840;29;20416;-83
2021/11/27 11:23:08;;;;;;;1.20;0.90;;;6.80;99.90;;;;;;4939347;29;20849;-82
2021/11/27 11:25:50;;;;;;;1.43;0.77;;;6.80;99.90;;;;;;4940227;29;20172;-83
2021/11/27 11:28:16;;;;;;;0.93;0.70;;;6.70;99.90;;;;;;4944347;29;20918;-84
2021/11/27 11:30:44;;;;;;;1.77;1.27;;;6.60;99.90;;;;;;4946192;29;20444;-84
2021/11/27 11:33:12;;;;;;;0.80;0.67;;;6.50;99.90;;;;;;4941773;29;20475;-84
2021/11/27 11:35:38;;;;;;;0.90;0.90;;;6.50;99.90;;;;;;4941442;29;20447;-84
2021/11/27 11:38:08;;;;;;;4.70;0.70;;;6.40;99.90;;;;;;4941210;29;20460;-84
2021/11/27 11:40:34;;;;;;;2.30;1.10;;;6.40;99.90;;;;;;4940332;29;20208;-84
2021/11/27 11:43:00;;;;;;;1.80;1.10;;;6.40;99.90;;;;;;4939688;29;20561;-84
2021/11/27 11:45:27;;;;;;;6.03;0.80;;;6.30;99.90;;;;;;4940895;29;20420;-84
2021/11/27 11:47:53;;;;;;;1.97;0.70;;;6.30;99.90;;;;;;4941150;29;20944;-84
2021/11/27 11:50:22;;;;;;;1.70;1.60;;;6.20;99.90;;;;;;4939946;29;20426;-84
2021/11/27 11:52:56;;;;;;;2.80;1.60;;;6.20;99.90;;;;;;4940505;29;20415;-84
2021/11/27 11:55:22;;;;;;;0.73;0.73;;;6.20;99.90;;;;;;4940980;29;20508;-84
2021/11/27 11:57:56;;;;;;;0.70;0.60;;;6.00;99.90;;;;;;4940246;29;20467;-84
2021/11/27 12:00:26;;;;;;;0.50;0.50;;;5.70;99.90;;;;;;4939744;29;20468;-84
2021/11/27 12:02:52;;;;;;;0.90;0.60;;;5.70;99.90;;;;;;4939849;29;20820;-84
2021/11/27 12:05:22;;;;;;;0.90;0.50;;;5.50;99.90;;;;;;4940418;29;20983;-84
2021/11/27 12:07:50;;;;;;;1.23;0.40;;;5.40;99.90;;;;;;4939903;29;20420;-85
2021/11/27 12:10:20;;;;;;;0.40;0.40;;;5.30;99.90;;;;;;4939621;29;20430;-84
2021/11/27 12:13:06;;;;;;;0.50;0.50;;;5.20;99.90;;;;;;4939084;29;20452;-84
2021/11/27 12:15:42;;;;;;;0.50;0.40;;;5.20;99.90;;;;;;4939345;29;20478;-84
2021/11/27 12:18:16;;;;;;;1.23;0.50;;;5.20;99.90;;;;;;4939793;29;20850;-84
2021/11/27 12:20:48;;;;;;;0.83;0.77;;;5.30;99.90;;;;;;4939038;29;20428;-84
2021/11/27 12:23:26;;;;;;;1.30;0.60;;;5.40;99.90;;;;;;4939791;29;20394;-84
2021/11/27 12:26:14;;;;;;;2.40;0.83;;;5.40;99.90;;;;;;4940670;29;20864;-84
2021/11/27 12:28:50;;;;;;;1.23;0.90;;;5.40;99.90;;;;;;4940001;29;20428;-84
2021/11/27 12:31:22;;;;;;;0.87;0.70;;;5.40;99.90;;;;;;4938729;29;20470;-84
2021/11/27 12:33:58;;;;;;;2.30;1.57;;;5.40;99.90;;;;;;4937825;29;20908;-84
2021/11/27 12:36:26;;;;;;;0.80;0.70;;;5.50;99.90;;;;;;4938847;29;20977;-85
2021/11/27 12:38:56;;;;;;;0.70;0.70;;;5.50;99.90;;;;;;4932778;29;20543;-85
2021/11/27 12:41:28;;;;;;;0.60;0.60;;;5.60;99.90;;;;;;4933755;29;20455;-85
2021/11/27 12:44:12;;;;;;;0.60;0.60;;;5.60;99.90;;;;;;4937589;28;20449;-85
2021/11/27 12:46:43;;;;;;;1.40;0.60;;;5.50;99.90;;;;;;4929240;29;20459;-84
2021/11/27 12:49:08;;;;;;;0.50;0.47;;;5.50;99.90;;;;;;4935827;28;20890;-85
2021/11/27 12:51:34;;;;;;;0.80;0.50;;;5.50;99.90;;;;;;4938107;29;20442;-85
2021/11/27 12:54:00;;;;;;;0.97;0.50;;;5.50;99.90;;;;;;4938054;29;20227;-85
2021/11/27 12:56:27;;;;;;;0.70;0.60;;;5.50;99.90;;;;;;4936594;29;20214;-85
2021/11/27 12:58:57;;;;;;;0.73;0.60;;;5.40;99.90;;;;;;4937833;29;20245;-85
2021/11/27 13:01:32;;;;;;;0.60;0.50;;;5.30;99.90;;;;;;4938029;29;20473;-85
2021/11/27 13:04:00;;;;;;;0.50;0.50;;;5.10;99.90;;;;;;4937724;28;20454;-85
2021/11/27 13:06:26;;;;;;;1.27;0.90;;;5.00;99.90;;;;;;4937943;29;21034;-84
2021/11/27 13:08:52;;;;;;;0.80;0.70;;;4.90;99.90;;;;;;4937875;29;20472;-85
2021/11/27 13:11:22;;;;;;;1.77;0.60;;;4.70;99.90;;;;;;4937432;29;20458;-84
2021/11/27 13:13:51;;;;;;;0.60;0.60;;;4.60;99.90;;;;;;4937663;29;20482;-84
2021/11/27 13:16:24;;;;;;;0.57;0.57;;;4.50;99.90;;;;;;4938500;29;20429;-84
2021/11/27 13:18:56;;;;;;;1.23;1.03;;;4.40;99.90;;;;;;4926001;28;20463;-84
2021/11/27 13:21:26;;;;;;;0.80;0.70;;;4.30;99.90;;;;;;4936163;29;20475;-83
2021/11/27 13:23:53;;;;;;;1.17;0.90;;;4.10;99.90;;;;;;4936404;29;20480;-84
2021/11/27 13:26:21;;;;;;;0.77;0.77;;;3.70;99.90;;;;;;4937170;29;20455;-85
2021/11/27 13:28:53;;;;;;;0.70;0.63;;;3.30;99.90;;;;;;4936904;29;20455;-84
2021/11/27 13:31:29;;;;;;;1.20;1.03;;;2.90;99.90;;;;;;4934829;29;20872;-85
2021/11/27 13:34:13;;;;;;;1.07;1.00;;;2.70;99.90;;;;;;4937348;29;20581;-84
2021/11/27 13:36:45;;;;;;;0.70;0.60;;;2.40;99.90;;;;;;4935777;29;20424;-84
2021/11/27 13:39:13;;;;;;;0.97;0.63;;;2.30;99.90;;;;;;4938080;28;20985;-82
2021/11/27 13:41:38;;;;;;;0.60;0.60;;;2.30;99.90;;;;;;4936508;29;20476;-84
2021/11/27 13:44:05;;;;;;;0.90;0.90;;;2.20;99.90;;;;;;4936684;28;20468;-83
2021/11/27 13:46:31;;;;;;;1.00;1.00;;;2.30;99.90;;;;;;4936818;29;20201;-82
2021/11/27 13:49:04;;;;;;;3.30;0.80;;;2.20;99.90;;;;;;4937770;29;20933;-84
2021/11/27 13:51:30;;;;;;;1.60;1.50;;;2.20;99.90;;;;;;4937671;29;20219;-84
2021/11/27 13:53:55;;;;;;;7.77;6.20;;;2.30;99.90;;;;;;4937137;29;20490;-83
2021/11/27 13:56:22;;;;;;;2.07;1.60;;;2.50;99.90;;;;;;4937039;29;20479;-84
2021/11/27 13:58:54;;;;;;;1.80;1.70;;;2.60;99.90;;;;;;4936477;29;20231;-84
2021/11/27 14:01:20;;;;;;;1.57;1.47;;;2.80;99.90;;;;;;4935335;29;20432;-84
2021/11/27 14:03:46;;;;;;;1.73;1.63;;;2.80;99.90;;;;;;4936741;29;20424;-84
2021/11/27 14:06:14;;;;;;;2.33;2.13;;;2.80;99.90;;;;;;4936075;29;20444;-84
2021/11/27 14:08:52;;;;;;;2.20;1.93;;;2.80;99.90;;;;;;4935716;28;20289;-85
2021/11/27 14:11:18;;;;;;;2.33;1.33;;;2.80;99.90;;;;;;4936258;29;20451;-84
2021/11/27 14:14:07;;;;;;;1.53;1.43;;;2.80;99.90;;;;;;4936254;29;20426;-84
2021/11/27 14:16:40;;;;;;;2.60;2.50;;;2.90;99.90;;;;;;4935956;29;20840;-84
2021/11/27 14:19:25;;;;;;;1.87;1.77;;;2.90;99.90;;;;;;4934804;29;20882;-84
2021/11/27 14:22:07;;;;;;;2.83;2.63;;;3.00;99.90;;;;;;4935897;29;20565;-84
2021/11/27 14:24:33;;;;;;;9.03;7.53;;;2.90;99.90;;;;;;4935459;29;20473;-85
2021/11/27 14:27:04;;;;;;;3.43;1.80;;;2.80;99.90;;;;;;4935853;29;20902;-86
2021/11/27 14:29:29;;;;;;;2.00;1.30;;;2.80;99.90;;;;;;4934139;29;20488;-86
2021/11/27 14:31:55;;;;;;;5.60;4.33;;;2.80;99.90;;;;;;4933280;29;20456;-86
2021/11/27 14:34:32;;;;;;;11.97;9.07;;;2.80;99.90;;;;;;4935160;29;20188;-86
2021/11/27 14:37:02;;;;;;;3.20;2.83;;;2.80;99.90;;;;;;4935791;29;20200;-86
2021/11/27 14:39:28;;;;;;;5.30;2.77;;;2.90;99.90;;;;;;4935888;29;20429;-86
2021/11/27 14:42:03;;;;;;;7.10;5.57;;;3.00;99.90;;;;;;4934190;29;20449;-86
2021/11/27 14:44:29;;;;;;;6.10;2.97;;;3.00;99.90;;;;;;4935610;29;20397;-86
2021/11/27 14:46:57;;;;;;;2.70;2.50;;;3.00;99.90;;;;;;4935300;29;20389;-86
2021/11/27 14:49:47;;;;;;;2.97;2.33;;;3.00;99.90;;;;;;4935793;29;20818;-86
2021/11/27 14:52:17;;;;;;;2.30;2.20;;;3.00;99.90;;;;;;4933939;29;20975;-86
2021/11/27 14:54:52;;;;;;;4.10;3.80;;;2.90;99.90;;;;;;4935422;29;20421;-86
2021/11/27 14:57:19;;;;;;;7.27;6.60;;;2.90;99.90;;;;;;4935308;29;20969;-86
2021/11/27 14:59:49;;;;;;;3.27;3.07;;;2.80;99.90;;;;;;4935257;29;20419;-87
2021/11/27 15:02:16;;;;;;;11.23;3.40;;;2.80;99.90;;;;;;4935564;29;20437;-86
2021/11/27 15:04:41;;;;;;;4.90;4.13;;;2.70;99.90;;;;;;4935077;29;20415;-86
2021/11/27 15:07:09;;;;;;;4.63;4.10;;;2.70;99.90;;;;;;4935834;29;20923;-86
2021/11/27 15:09:34;;;;;;;5.83;4.17;;;2.60;99.90;;;;;;4935941;29;20531;-87
2021/11/27 15:12:00;;;;;;;5.97;4.27;;;2.60;99.90;;;;;;4934406;29;20446;-87
2021/11/27 15:14:25;;;;;;;7.13;5.20;;;2.50;99.90;;;;;;4934009;29;20620;-87
2021/11/27 15:16:51;;;;;;;10.57;6.80;;;2.50;99.90;;;;;;4933777;29;20220;-87
2021/11/27 15:19:17;;;;;;;14.07;8.80;;;2.40;99.90;;;;;;4934853;29;20237;-87
2021/11/27 15:21:42;;;;;;;12.33;8.63;;;2.40;99.90;;;;;;4934639;29;20638;-87
2021/11/27 15:24:09;;;;;;;13.30;9.60;;;2.40;99.90;;;;;;4934962;29;20686;-87
2021/11/27 15:26:34;;;;;;;20.70;12.20;;;2.30;99.90;;;;;;4933253;28;20248;-87
2021/11/27 15:29:04;;;;;;;20.10;11.87;;;2.30;99.90;;;;;;4935057;29;20438;-87
2021/11/27 15:31:30;;;;;;;19.20;12.27;;;2.30;99.90;;;;;;4934572;29;20240;-87
2021/11/27 15:33:57;;;;;;;18.17;11.13;;;2.20;99.90;;;;;;4933788;29;20793;-87
2021/11/27 15:36:23;;;;;;;19.60;10.80;;;2.20;99.90;;;;;;4934847;28;20463;-87
2021/11/27 15:38:48;;;;;;;17.23;10.93;;;2.10;99.90;;;;;;4934771;29;20449;-86
2021/11/27 15:41:17;;;;;;;24.87;15.40;;;2.10;99.90;;;;;;4934930;28;20212;-87
2021/11/27 15:43:44;;;;;;;27.83;18.33;;;2.10;99.90;;;;;;4934998;29;20304;-86
2021/11/27 15:46:09;;;;;;;32.40;17.90;;;2.10;99.90;;;;;;4935333;29;20468;-87
2021/11/27 15:48:36;;;;;;;43.83;21.00;;;2.00;99.90;;;;;;4939247;29;21089;-85
2021/11/27 15:51:02;;;;;;;34.83;19.63;;;1.90;99.90;;;;;;4939858;29;20573;-83
2021/11/27 15:53:27;;;;;;;32.33;18.83;;;1.90;99.90;;;;;;4942320;29;20509;-83
2021/11/27 15:55:53;;;;;;;31.40;17.80;;;1.80;99.90;;;;;;4939635;29;20903;-83
2021/11/27 15:58:19;;;;;;;27.77;14.63;;;1.80;99.90;;;;;;4938727;29;20713;-82
2021/11/27 16:00:44;;;;;;;28.80;14.03;;;1.70;99.90;;;;;;4938107;28;20230;-82
2021/11/27 16:03:10;;;;;;;34.50;16.63;;;1.60;99.90;;;;;;4938545;29;20213;-83
2021/11/27 16:05:36;;;;;;;29.33;16.23;;;1.60;99.90;;;;;;4939721;28;20269;-82
2021/11/27 16:08:01;;;;;;;33.60;17.90;;;1.60;99.90;;;;;;4938363;29;20340;-82
2021/11/27 16:10:27;;;;;;;28.70;16.23;;;1.50;99.90;;;;;;4937706;28;20431;-81
2021/11/27 16:12:53;;;;;;;28.07;13.50;;;1.60;99.90;;;;;;4937795;29;20220;-82
2021/11/27 16:15:18;;;;;;;28.47;12.70;;;1.60;99.90;;;;;;4938301;29;20215;-82
2021/11/27 16:17:44;;;;;;;22.87;12.80;;;1.60;99.90;;;;;;4938381;29;20280;-81
2021/11/27 16:20:10;;;;;;;24.77;13.80;;;1.50;99.90;;;;;;4938326;29;20229;-81
2021/11/27 16:22:38;;;;;;;23.77;13.83;;;1.40;99.90;;;;;;4937782;28;20222;-81
2021/11/27 16:25:04;;;;;;;16.10;10.13;;;1.40;99.90;;;;;;4936928;29;20430;-81
2021/11/27 16:27:30;;;;;;;16.97;10.60;;;1.40;99.90;;;;;;4938499;29;20978;-81
2021/11/27 16:29:58;;;;;;;16.40;11.40;;;1.40;99.90;;;;;;4938301;29;20475;-82
2021/11/27 16:32:24;;;;;;;13.60;9.40;;;1.40;99.90;;;;;;4937821;29;20890;-82
2021/11/27 16:34:50;;;;;;;20.53;11.27;;;1.30;99.90;;;;;;4938756;29;20424;-82
2021/11/27 16:37:15;;;;;;;19.37;11.30;;;1.30;99.90;;;;;;4937824;29;20667;-81
2021/11/27 16:39:42;;;;;;;18.70;11.17;;;1.30;99.90;;;;;;4938268;29;20213;-81
2021/11/27 16:42:10;;;;;;;22.70;11.63;;;1.30;99.90;;;;;;4936646;29;20980;-82
2021/11/27 16:44:39;;;;;;;14.80;9.00;;;1.30;99.90;;;;;;4927015;29;20465;-81
2021/11/27 16:47:05;;;;;;;15.97;8.90;;;1.30;99.90;;;;;;4937670;29;20481;-81
2021/11/27 16:49:31;;;;;;;21.37;10.00;;;1.30;99.90;;;;;;4937776;29;20538;-83
2021/11/27 16:51:57;;;;;;;18.00;12.10;;;1.40;99.90;;;;;;4938091;29;20446;-83
2021/11/27 16:54:25;;;;;;;20.80;13.90;;;1.40;99.90;;;;;;4937829;29;20643;-83
2021/11/27 16:56:51;;;;;;;22.13;13.23;;;1.40;99.90;;;;;;4937271;29;20533;-82
2021/11/27 16:59:16;;;;;;;25.37;14.83;;;1.40;99.90;;;;;;4937435;29;20459;-82
2021/11/27 17:01:42;;;;;;;21.93;11.90;;;1.50;99.90;;;;;;4937740;29;20435;-82
2021/11/27 17:04:10;;;;;;;24.10;12.93;;;1.50;99.90;;;;;;4937128;29;20232;-83
2021/11/27 17:06:36;;;;;;;30.23;12.33;;;1.50;99.90;;;;;;4937094;29;20249;-83
2021/11/27 17:09:02;;;;;;;21.63;10.70;;;1.50;99.90;;;;;;4937358;29;20856;-84
2021/11/27 17:11:28;;;;;;;19.23;10.27;;;1.50;99.90;;;;;;4935533;29;20232;-82
2021/11/27 17:13:54;;;;;;;18.00;10.70;;;1.50;99.90;;;;;;4936963;29;20429;-82
2021/11/27 17:16:22;;;;;;;15.50;9.97;;;1.60;99.90;;;;;;4936787;28;20238;-82
2021/11/27 17:18:51;;;;;;;18.13;11.30;;;1.60;99.90;;;;;;4937095;29;20509;-82
2021/11/27 17:21:18;;;;;;;13.67;8.00;;;1.50;99.90;;;;;;4936562;29;20930;-83
2021/11/27 17:23:44;;;;;;;9.77;6.83;;;1.50;99.90;;;;;;4935239;29;20453;-83
2021/11/27 17:26:10;;;;;;;17.20;7.27;;;1.50;99.90;;;;;;4935653;28;20966;-83